Thunderstorms From: 15-12-2017 06:00 Until: 16-12-2017 06:00 warning for: Thunderstorms Level: Yellow info button

Although rather usual in this region, locally or potentially dangerous phenomena are expected. (such as local winds, summer thunderstorms, rising streams or high waves) Be aware and pay attention to the latest weather updates, especially if you carry out activities exposed to weather or close to a stream or shoreline. 


Meteo18 Weather Cam more information Meteo18 Weather Cam


warning for Thunderstorms more information blitzortung!


Rain radar more information rain snow radar


Visit our other weather sites:

Template documentation
and downloads

And another site



Weather Underground History page Text

Daily Summary for June 1, 2017 Units:  Metric    English   Both
« Previous Day
Next Day »
Daily Weekly Monthly Yearly Custom
  High: Low: Average:
Temperature: 27.6 °C 14.1 °C 20.8 °C
Dew Point: 17.9 °C 12.4 °C 15.3 °C
Humidity: 90 % 49 % 72 %
Wind Speed: 11.3 km/h 0.0 km/h 1.6 km/h
Wind Gust: 16.1 km/h - -
Wind:- - ESE
Pressure: 1021.9 hPa 1018.5 hPa -
Precipitation: 0.0 mm    
Historical Graphs
 
 
Tabular Data for June 1, 2017
Time Temperature Dew Point Pressure Wind Wind Speed Wind Gust Humidity Rainfall Rate (Hourly)
00:02 17.3 °C 14.6 °C 1021.9 hPa NNE 1.6 km/h 3.2 km/h 84 % 0.0 mm
00:07 17.2 °C 14.5 °C 1021.9 hPa NNE 1.6 km/h 3.2 km/h 84 % 0.0 mm
00:12 17.1 °C 14.4 °C 1021.9 hPa Calm   3.2 km/h 84 % 0.0 mm
00:17 17.1 °C 14.4 °C 1021.9 hPa Calm   3.2 km/h 84 % 0.0 mm
00:22 17.1 °C 14.4 °C 1021.9 hPa Calm   3.2 km/h 84 % 0.0 mm
00:32 17.1 °C 14.4 °C 1021.9 hPa Calm   3.2 km/h 84 % 0.0 mm
00:37 17.1 °C 14.4 °C 1021.9 hPa Calm   3.2 km/h 84 % 0.0 mm
00:42 17.1 °C 14.2 °C 1021.9 hPa Calm   3.2 km/h 83 % 0.0 mm
00:52 17.1 °C 14.2 °C 1021.9 hPa Calm   1.6 km/h 83 % 0.0 mm
00:57 17.0 °C 14.1 °C 1021.9 hPa Calm   1.6 km/h 83 % 0.0 mm
01:02 16.9 °C 14.0 °C 1021.9 hPa Calm   1.6 km/h 83 % 0.0 mm
01:12 16.9 °C 14.0 °C 1021.9 hPa Calm     83 % 0.0 mm
01:17 16.7 °C 13.8 °C 1021.9 hPa Calm     83 % 0.0 mm
01:22 16.7 °C 13.8 °C 1021.9 hPa Calm   3.2 km/h 83 % 0.0 mm
01:27 16.6 °C 13.7 °C 1021.9 hPa Calm   3.2 km/h 83 % 0.0 mm
01:32 16.6 °C 13.7 °C 1021.9 hPa Calm   3.2 km/h 83 % 0.0 mm
01:42 16.4 °C 13.7 °C 1021.9 hPa NW 1.6 km/h 1.6 km/h 84 % 0.0 mm
01:47 16.3 °C 13.6 °C 1021.9 hPa Calm   4.8 km/h 84 % 0.0 mm
01:52 16.3 °C 13.6 °C 1021.9 hPa Calm   4.8 km/h 84 % 0.0 mm
01:57 16.3 °C 13.6 °C 1021.9 hPa Calm   4.8 km/h 84 % 0.0 mm
02:02 16.2 °C 13.7 °C 1021.9 hPa Calm   4.8 km/h 85 % 0.0 mm
02:07 16.2 °C 13.5 °C 1021.9 hPa Calm   1.6 km/h 84 % 0.0 mm
02:12 16.0 °C 13.5 °C 1021.9 hPa Calm   1.6 km/h 85 % 0.0 mm
02:17 15.9 °C 13.6 °C 1021.9 hPa Calm     86 % 0.0 mm
02:22 15.7 °C 13.5 °C 1021.9 hPa Calm     87 % 0.0 mm
02:32 16.0 °C 13.7 °C 1021.9 hPa Calm     86 % 0.0 mm
02:42 16.1 °C 13.6 °C 1021.6 hPa Calm     85 % 0.0 mm
02:47 16.0 °C 13.5 °C 1021.6 hPa Calm     85 % 0.0 mm
02:52 15.9 °C 13.6 °C 1021.6 hPa Calm     86 % 0.0 mm
02:57 15.6 °C 13.4 °C 1021.6 hPa Calm     87 % 0.0 mm
03:02 15.6 °C 13.4 °C 1021.6 hPa Calm     87 % 0.0 mm
03:12 15.7 °C 13.5 °C 1021.6 hPa Calm     87 % 0.0 mm
03:17 15.6 °C 13.4 °C 1021.6 hPa Calm     87 % 0.0 mm
03:22 15.4 °C 13.2 °C 1021.6 hPa Calm     87 % 0.0 mm
03:32 15.3 °C 13.3 °C 1021.2 hPa Calm   1.6 km/h 88 % 0.0 mm
03:37 15.3 °C 13.3 °C 1021.2 hPa Calm   1.6 km/h 88 % 0.0 mm
03:42 15.2 °C 13.0 °C 1021.2 hPa Calm   3.2 km/h 87 % 0.0 mm
03:52 15.1 °C 13.1 °C 1021.2 hPa NNE 1.6 km/h 3.2 km/h 88 % 0.0 mm
03:57 14.9 °C 12.9 °C 1021.2 hPa North 1.6 km/h 3.2 km/h 88 % 0.0 mm
04:02 14.9 °C 12.9 °C 1021.2 hPa NNE 1.6 km/h 4.8 km/h 88 % 0.0 mm
04:12 14.9 °C 12.9 °C 1021.2 hPa Calm   4.8 km/h 88 % 0.0 mm
04:17 14.8 °C 12.8 °C 1021.2 hPa Calm   4.8 km/h 88 % 0.0 mm
04:22 14.7 °C 12.9 °C 1021.2 hPa Calm   4.8 km/h 89 % 0.0 mm
04:32 14.8 °C 12.8 °C 1020.9 hPa North 1.6 km/h 3.2 km/h 88 % 0.0 mm
04:37 14.8 °C 12.8 °C 1020.9 hPa Calm   3.2 km/h 88 % 0.0 mm
04:42 14.8 °C 12.8 °C 1020.9 hPa NNE 3.2 km/h 3.2 km/h 88 % 0.0 mm
04:47 14.8 °C 12.8 °C 1020.9 hPa Calm   3.2 km/h 88 % 0.0 mm
04:52 14.7 °C 12.7 °C 1020.9 hPa Calm   3.2 km/h 88 % 0.0 mm
04:57 14.6 °C 12.6 °C 1020.9 hPa Calm   3.2 km/h 88 % 0.0 mm
05:02 14.6 °C 12.8 °C 1020.9 hPa Calm   3.2 km/h 89 % 0.0 mm
05:07 14.6 °C 12.8 °C 1020.9 hPa Calm     89 % 0.0 mm
05:12 14.7 °C 12.9 °C 1020.9 hPa Calm     89 % 0.0 mm
05:17 14.5 °C 12.7 °C 1020.5 hPa WNW 1.6 km/h 1.6 km/h 89 % 0.0 mm
05:22 14.4 °C 12.8 °C 1020.5 hPa WNW 1.6 km/h 1.6 km/h 90 % 0.0 mm
05:27 14.6 °C 12.8 °C 1020.5 hPa NW 1.6 km/h 1.6 km/h 89 % 0.0 mm
05:32 14.6 °C 12.8 °C 1020.5 hPa North 1.6 km/h 1.6 km/h 89 % 0.0 mm
05:42 14.4 °C 12.6 °C 1020.5 hPa Calm   1.6 km/h 89 % 0.0 mm
05:47 14.4 °C 12.6 °C 1020.5 hPa North 1.6 km/h 3.2 km/h 89 % 0.0 mm
05:52 14.3 °C 12.5 °C 1020.5 hPa Calm   3.2 km/h 89 % 0.0 mm
05:57 14.3 °C 12.5 °C 1020.9 hPa Calm   3.2 km/h 89 % 0.0 mm
06:02 14.2 °C 12.4 °C 1020.9 hPa Calm   3.2 km/h 89 % 0.0 mm
06:12 14.1 °C 12.5 °C 1020.9 hPa North 1.6 km/h 3.2 km/h 90 % 0.0 mm
06:17 14.1 °C 12.5 °C 1020.9 hPa Calm   3.2 km/h 90 % 0.0 mm
06:22 14.2 °C 12.6 °C 1020.9 hPa Calm   3.2 km/h 90 % 0.0 mm
06:27 14.2 °C 12.6 °C 1020.9 hPa NNW 1.6 km/h 3.2 km/h 90 % 0.0 mm
06:32 14.3 °C 12.7 °C 1020.9 hPa North 1.6 km/h 1.6 km/h 90 % 0.0 mm
06:37 14.4 °C 12.8 °C 1020.9 hPa Calm   1.6 km/h 90 % 0.0 mm
06:42 14.5 °C 12.7 °C 1020.9 hPa Calm   3.2 km/h 89 % 0.0 mm
06:47 14.6 °C 12.8 °C 1020.9 hPa North 3.2 km/h 3.2 km/h 89 % 0.0 mm
06:52 14.6 °C 12.8 °C 1020.9 hPa Calm   3.2 km/h 89 % 0.0 mm
06:57 14.9 °C 13.1 °C 1020.9 hPa Calm   3.2 km/h 89 % 0.0 mm
07:02 15.2 °C 13.2 °C 1020.9 hPa Calm   3.2 km/h 88 % 0.0 mm
07:07 15.4 °C 13.2 °C 1020.9 hPa Calm   1.6 km/h 87 % 0.0 mm
07:12 15.8 °C 13.5 °C 1021.2 hPa Calm   1.6 km/h 86 % 0.0 mm
07:17 16.1 °C 13.8 °C 1021.2 hPa Calm   1.6 km/h 86 % 0.0 mm
07:22 16.4 °C 13.9 °C 1021.2 hPa Calm   1.6 km/h 85 % 0.0 mm
07:27 17.1 °C 14.4 °C 1021.2 hPa Calm   1.6 km/h 84 % 0.0 mm
07:32 17.5 °C 14.4 °C 1021.2 hPa Calm   1.6 km/h 82 % 0.0 mm
07:37 17.7 °C 14.6 °C 1021.2 hPa Calm   1.6 km/h 82 % 0.0 mm
07:42 17.6 °C 14.7 °C 1021.2 hPa NNE 1.6 km/h 1.6 km/h 83 % 0.0 mm
07:47 17.4 °C 14.7 °C 1021.2 hPa North 1.6 km/h 1.6 km/h 84 % 0.0 mm
07:52 17.3 °C 14.6 °C 1021.2 hPa NNE 3.2 km/h 3.2 km/h 84 % 0.0 mm
07:57 17.3 °C 14.6 °C 1021.2 hPa NNW 1.6 km/h 3.2 km/h 84 % 0.0 mm
08:02 17.2 °C 14.3 °C 1021.2 hPa Calm   3.2 km/h 83 % 0.0 mm
08:07 17.3 °C 14.2 °C 1021.2 hPa North 1.6 km/h 4.8 km/h 82 % 0.0 mm
08:12 17.6 °C 14.5 °C 1021.2 hPa NNE 1.6 km/h 4.8 km/h 82 % 0.0 mm
08:17 17.8 °C 14.5 °C 1021.6 hPa NE 3.2 km/h 3.2 km/h 81 % 0.0 mm
08:22 17.9 °C 14.4 °C 1021.6 hPa ENE 1.6 km/h 3.2 km/h 80 % 0.0 mm
08:27 18.1 °C 14.8 °C 1021.6 hPa Calm   6.4 km/h 81 % 0.0 mm
08:32 18.4 °C 14.9 °C 1021.6 hPa ENE 3.2 km/h 6.4 km/h 80 % 0.0 mm
08:37 18.5 °C 14.8 °C 1021.6 hPa ENE 1.6 km/h 4.8 km/h 79 % 0.0 mm
08:42 18.6 °C 14.7 °C 1021.2 hPa Calm   4.8 km/h 78 % 0.0 mm
08:47 19.1 °C 15.4 °C 1021.6 hPa Calm   3.2 km/h 79 % 0.0 mm
08:57 20.2 °C 15.8 °C 1021.6 hPa Calm   1.6 km/h 76 % 0.0 mm
09:02 20.4 °C 15.4 °C 1021.6 hPa Calm   1.6 km/h 73 % 0.0 mm
09:07 20.3 °C 15.7 °C 1021.6 hPa Calm   1.6 km/h 75 % 0.0 mm
09:12 20.3 °C 15.3 °C 1021.6 hPa Calm   1.6 km/h 73 % 0.0 mm
09:22 19.9 °C 15.3 °C 1021.6 hPa ENE 3.2 km/h 3.2 km/h 75 % 0.0 mm
09:27 20.0 °C 15.8 °C 1021.6 hPa Calm   4.8 km/h 77 % 0.0 mm
09:32 20.6 °C 16.0 °C 1021.6 hPa East 1.6 km/h 4.8 km/h 75 % 0.0 mm
09:37 20.9 °C 15.9 °C 1021.6 hPa East 1.6 km/h 3.2 km/h 73 % 0.0 mm
09:42 21.0 °C 15.8 °C 1021.6 hPa East 1.6 km/h 3.2 km/h 72 % 0.0 mm
09:47 20.4 °C 15.6 °C 1021.6 hPa Calm   6.4 km/h 74 % 0.0 mm
09:52 20.5 °C 15.9 °C 1021.6 hPa Calm   6.4 km/h 75 % 0.0 mm
09:57 20.9 °C 16.3 °C 1021.6 hPa Calm   6.4 km/h 75 % 0.0 mm
10:02 20.9 °C 16.1 °C 1021.6 hPa ENE 3.2 km/h 6.4 km/h 74 % 0.0 mm
10:07 20.7 °C 16.1 °C 1021.6 hPa ENE 3.2 km/h 6.4 km/h 75 % 0.0 mm
10:12 20.7 °C 16.1 °C 1021.6 hPa East 1.6 km/h 6.4 km/h 75 % 0.0 mm
10:17 20.9 °C 16.3 °C 1021.6 hPa SE 3.2 km/h 6.4 km/h 75 % 0.0 mm
10:22 21.2 °C 15.9 °C 1021.6 hPa Calm   6.4 km/h 72 % 0.0 mm
10:32 21.6 °C 16.3 °C 1021.6 hPa East 3.2 km/h 6.4 km/h 72 % 0.0 mm
10:37 21.6 °C 16.6 °C 1021.6 hPa East 1.6 km/h 6.4 km/h 73 % 0.0 mm
10:42 21.8 °C 16.3 °C 1021.6 hPa Calm   6.4 km/h 71 % 0.0 mm
10:47 22.0 °C 16.3 °C 1021.6 hPa ENE 1.6 km/h 4.8 km/h 70 % 0.0 mm
10:57 22.6 °C 16.8 °C 1021.6 hPa Calm   6.4 km/h 70 % 0.0 mm
11:02 22.6 °C 16.4 °C 1021.6 hPa Calm   6.4 km/h 68 % 0.0 mm
11:12 23.0 °C 17.0 °C 1021.6 hPa SW 4.8 km/h 6.4 km/h 69 % 0.0 mm
11:17 22.9 °C 16.7 °C 1021.6 hPa SSE 1.6 km/h 6.4 km/h 68 % 0.0 mm
11:22 23.2 °C 17.2 °C 1021.6 hPa East 3.2 km/h 6.4 km/h 69 % 0.0 mm
11:32 23.3 °C 17.1 °C 1021.6 hPa NE 1.6 km/h 8.0 km/h 68 % 0.0 mm
11:37 23.2 °C 16.3 °C 1021.6 hPa ENE 4.8 km/h 8.0 km/h 65 % 0.0 mm
11:42 22.7 °C 16.0 °C 1021.6 hPa NE 3.2 km/h 8.0 km/h 66 % 0.0 mm
11:47 22.6 °C 15.9 °C 1021.6 hPa ENE 1.6 km/h 9.7 km/h 66 % 0.0 mm
11:52 22.6 °C 16.2 °C 1021.6 hPa ENE 1.6 km/h 9.7 km/h 67 % 0.0 mm
11:57 22.6 °C 16.4 °C 1021.6 hPa NE 6.4 km/h 9.7 km/h 68 % 0.0 mm
12:02 22.6 °C 16.4 °C 1021.6 hPa East 8.0 km/h 9.7 km/h 68 % 0.0 mm
12:07 22.6 °C 16.4 °C 1021.6 hPa ENE 3.2 km/h 9.7 km/h 68 % 0.0 mm
12:12 22.5 °C 16.3 °C 1021.6 hPa ENE 1.6 km/h 9.7 km/h 68 % 0.0 mm
12:17 22.4 °C 14.8 °C 1021.6 hPa NE 11.3 km/h 11.3 km/h 62 % 0.0 mm
12:22 22.4 °C 15.3 °C 1021.6 hPa East 6.4 km/h 11.3 km/h 64 % 0.0 mm
12:27 22.6 °C 15.7 °C 1021.6 hPa NNW 4.8 km/h 14.5 km/h 65 % 0.0 mm
12:32 22.6 °C 15.9 °C 1021.6 hPa East 4.8 km/h 14.5 km/h 66 % 0.0 mm
12:37 22.9 °C 16.4 °C 1021.6 hPa ENE 6.4 km/h 14.5 km/h 67 % 0.0 mm
12:42 23.2 °C 16.3 °C 1021.6 hPa NE 4.8 km/h 11.3 km/h 65 % 0.0 mm
12:47 23.2 °C 16.3 °C 1021.6 hPa ENE 4.8 km/h 12.9 km/h 65 % 0.0 mm
12:52 23.3 °C 16.3 °C 1021.6 hPa ENE 6.4 km/h 12.9 km/h 65 % 0.0 mm
13:02 23.5 °C 16.0 °C 1021.2 hPa ENE 4.8 km/h 16.1 km/h 63 % 0.0 mm
13:07 23.6 °C 15.6 °C 1021.2 hPa ENE 3.2 km/h 16.1 km/h 61 % 0.0 mm
13:12 23.9 °C 16.7 °C 1021.2 hPa East 6.4 km/h 16.1 km/h 64 % 0.0 mm
13:17 23.9 °C 16.2 °C 1021.2 hPa NE 4.8 km/h 14.5 km/h 62 % 0.0 mm
13:22 23.9 °C 16.4 °C 1021.2 hPa East 6.4 km/h 16.1 km/h 63 % 0.0 mm
13:27 24.2 °C 16.5 °C 1021.2 hPa ENE 4.8 km/h 16.1 km/h 62 % 0.0 mm
13:32 24.1 °C 15.8 °C 1021.2 hPa East 11.3 km/h 12.9 km/h 60 % 0.0 mm
13:42 23.9 °C 15.7 °C 1020.9 hPa East 8.0 km/h 16.1 km/h 60 % 0.0 mm
13:47 24.2 °C 17.0 °C 1020.9 hPa East 11.3 km/h 16.1 km/h 64 % 0.0 mm
13:52 24.4 °C 16.1 °C 1020.9 hPa East 3.2 km/h 14.5 km/h 60 % 0.0 mm
14:02 24.6 °C 16.3 °C 1020.9 hPa Calm   14.5 km/h 60 % 0.0 mm
14:12 25.3 °C 16.7 °C 1020.9 hPa ESE 6.4 km/h 6.4 km/h 59 % 0.0 mm
14:17 25.6 °C 17.3 °C 1020.5 hPa ENE 1.6 km/h 8.0 km/h 60 % 0.0 mm
14:22 25.6 °C 16.7 °C 1020.5 hPa Calm   8.0 km/h 58 % 0.0 mm
14:27 25.3 °C 16.7 °C 1020.5 hPa East 3.2 km/h 8.0 km/h 59 % 0.0 mm
14:32 25.1 °C 17.0 °C 1020.5 hPa ENE 9.7 km/h 12.9 km/h 61 % 0.0 mm
14:37 24.7 °C 16.7 °C 1020.5 hPa NNE 4.8 km/h 12.9 km/h 61 % 0.0 mm
14:47 24.8 °C 17.3 °C 1020.5 hPa ENE 8.0 km/h 12.9 km/h 63 % 0.0 mm
14:52 24.8 °C 16.8 °C 1020.5 hPa NE 4.8 km/h 12.9 km/h 61 % 0.0 mm
14:57 25.1 °C 17.3 °C 1020.5 hPa SW 6.4 km/h 12.9 km/h 62 % 0.0 mm
15:07 26.0 °C 17.1 °C 1020.2 hPa ESE 1.6 km/h 11.3 km/h 58 % 0.0 mm
15:12 26.1 °C 16.9 °C 1020.2 hPa SSW 3.2 km/h 9.7 km/h 57 % 0.0 mm
15:17 25.8 °C 17.2 °C 1020.2 hPa East 6.4 km/h 11.3 km/h 59 % 0.0 mm
15:22 26.1 °C 16.9 °C 1020.2 hPa NNE 4.8 km/h 11.3 km/h 57 % 0.0 mm
15:27 26.0 °C 17.9 °C 1020.2 hPa SE 3.2 km/h 9.7 km/h 61 % 0.0 mm
15:32 26.4 °C 17.5 °C 1020.2 hPa East 3.2 km/h 9.7 km/h 58 % 0.0 mm
15:37 26.3 °C 16.8 °C 1019.9 hPa ENE 4.8 km/h 9.7 km/h 56 % 0.0 mm
15:42 26.4 °C 17.2 °C 1019.9 hPa SSW 1.6 km/h 9.7 km/h 57 % 0.0 mm
15:47 26.2 °C 16.7 °C 1019.9 hPa SSW 3.2 km/h 8.0 km/h 56 % 0.0 mm
15:52 26.2 °C 17.3 °C 1019.9 hPa SE 1.6 km/h 6.4 km/h 58 % 0.0 mm
15:57 26.1 °C 16.6 °C 1019.9 hPa Calm   6.4 km/h 56 % 0.0 mm
16:02 26.4 °C 16.3 °C 1019.9 hPa East 4.8 km/h 6.4 km/h 54 % 0.0 mm
16:12 26.0 °C 16.3 °C 1019.5 hPa East 4.8 km/h 8.0 km/h 55 % 0.0 mm
16:17 26.3 °C 16.0 °C 1019.5 hPa SE 6.4 km/h 8.0 km/h 53 % 0.0 mm
16:22 26.8 °C 16.1 °C 1019.5 hPa SW 8.0 km/h 8.0 km/h 52 % 0.0 mm
16:27 26.6 °C 15.6 °C 1019.5 hPa Calm   8.0 km/h 51 % 0.0 mm
16:32 26.6 °C 15.9 °C 1019.5 hPa West 3.2 km/h 8.0 km/h 52 % 0.0 mm
16:42 26.5 °C 15.8 °C 1019.5 hPa SSW 6.4 km/h 11.3 km/h 52 % 0.0 mm
16:47 26.1 °C 15.8 °C 1019.5 hPa SE 1.6 km/h 11.3 km/h 53 % 0.0 mm
16:52 25.8 °C 16.4 °C 1019.5 hPa SW 3.2 km/h 11.3 km/h 56 % 0.0 mm
16:57 25.9 °C 16.2 °C 1019.2 hPa SSW 3.2 km/h 8.0 km/h 55 % 0.0 mm
17:02 26.2 °C 17.0 °C 1019.2 hPa West 4.8 km/h 6.4 km/h 57 % 0.0 mm
17:07 26.2 °C 16.4 °C 1019.2 hPa Calm   8.0 km/h 55 % 0.0 mm
17:12 26.1 °C 16.4 °C 1019.2 hPa WNW 1.6 km/h 8.0 km/h 55 % 0.0 mm
17:22 26.7 °C 16.9 °C 1019.2 hPa Calm   8.0 km/h 55 % 0.0 mm
17:32 27.3 °C 16.6 °C 1019.2 hPa Calm   11.3 km/h 52 % 0.0 mm
17:37 27.4 °C 16.7 °C 1018.8 hPa East 3.2 km/h 11.3 km/h 52 % 0.0 mm
17:47 26.8 °C 16.4 °C 1018.8 hPa SSW 1.6 km/h 8.0 km/h 53 % 0.0 mm
17:52 27.1 °C 15.5 °C 1018.8 hPa SW 3.2 km/h 9.7 km/h 49 % 0.0 mm
17:57 27.3 °C 16.3 °C 1018.8 hPa WSW 4.8 km/h 9.7 km/h 51 % 0.0 mm
18:02 27.4 °C 15.7 °C 1018.8 hPa South 3.2 km/h 6.4 km/h 49 % 0.0 mm
18:07 27.6 °C 16.2 °C 1018.8 hPa Calm   9.7 km/h 50 % 0.0 mm
18:12 27.6 °C 15.9 °C 1018.8 hPa Calm   9.7 km/h 49 % 0.0 mm
18:22 27.0 °C 16.3 °C 1018.8 hPa Calm   4.8 km/h 52 % 0.0 mm
18:32 27.4 °C 16.1 °C 1018.5 hPa Calm   6.4 km/h 50 % 0.0 mm
18:42 27.1 °C 16.7 °C 1018.5 hPa East 4.8 km/h 6.4 km/h 53 % 0.0 mm
18:47 26.8 °C 17.3 °C 1018.5 hPa Calm   8.0 km/h 56 % 0.0 mm
18:52 27.1 °C 16.4 °C 1018.5 hPa SSE 3.2 km/h 8.0 km/h 52 % 0.0 mm
18:57 26.9 °C 16.2 °C 1018.5 hPa Calm   6.4 km/h 52 % 0.0 mm
19:02 26.5 °C 16.1 °C 1018.5 hPa East 1.6 km/h 6.4 km/h 53 % 0.0 mm
19:12 26.1 °C 16.4 °C 1018.5 hPa ESE 1.6 km/h 6.4 km/h 55 % 0.0 mm
19:17 26.3 °C 16.8 °C 1018.8 hPa Calm   4.8 km/h 56 % 0.0 mm
19:22 26.3 °C 16.8 °C 1018.8 hPa Calm   4.8 km/h 56 % 0.0 mm
19:32 25.6 °C 16.4 °C 1018.5 hPa Calm   1.6 km/h 57 % 0.0 mm
19:42 25.9 °C 16.4 °C 1018.5 hPa Calm     56 % 0.0 mm
19:47 25.9 °C 16.2 °C 1018.5 hPa Calm     55 % 0.0 mm
19:52 26.0 °C 17.1 °C 1018.5 hPa Calm     58 % 0.0 mm
19:57 26.2 °C 17.0 °C 1018.5 hPa Calm     57 % 0.0 mm
20:02 26.3 °C 17.1 °C 1018.5 hPa Calm   3.2 km/h 57 % 0.0 mm
20:12 26.7 °C 16.9 °C 1018.5 hPa Calm   3.2 km/h 55 % 0.0 mm
20:17 26.8 °C 16.4 °C 1018.5 hPa Calm     53 % 0.0 mm
20:22 26.9 °C 16.5 °C 1018.5 hPa Calm     53 % 0.0 mm
20:32 27.1 °C 16.1 °C 1018.5 hPa Calm   3.2 km/h 51 % 0.0 mm
20:42 27.2 °C 15.9 °C 1018.5 hPa Calm   1.6 km/h 50 % 0.0 mm
20:47 27.5 °C 17.4 °C 1018.5 hPa Calm   1.6 km/h 54 % 0.0 mm
20:52 27.6 °C 17.5 °C 1018.5 hPa Calm   1.6 km/h 54 % 0.0 mm
20:57 27.4 °C 17.3 °C 1018.8 hPa Calm     54 % 0.0 mm
21:02 26.8 °C 16.7 °C 1018.8 hPa Calm     54 % 0.0 mm
21:07 26.2 °C 17.3 °C 1018.8 hPa Calm     58 % 0.0 mm
21:12 25.7 °C 16.8 °C 1018.8 hPa Calm     58 % 0.0 mm
21:17 24.6 °C 16.8 °C 1018.8 hPa Calm     62 % 0.0 mm
21:22 23.7 °C 16.2 °C 1018.8 hPa Calm     63 % 0.0 mm
21:32 22.7 °C 16.3 °C 1018.8 hPa Calm     67 % 0.0 mm
21:37 22.3 °C 16.1 °C 1018.8 hPa Calm     68 % 0.0 mm
21:42 21.9 °C 16.0 °C 1018.8 hPa Calm     69 % 0.0 mm
21:47 21.6 °C 16.1 °C 1018.8 hPa Calm     71 % 0.0 mm
21:52 21.2 °C 15.9 °C 1018.8 hPa Calm     72 % 0.0 mm
21:57 20.9 °C 16.1 °C 1018.8 hPa Calm     74 % 0.0 mm
22:02 20.7 °C 16.3 °C 1018.8 hPa Calm     76 % 0.0 mm
22:12 20.4 °C 16.0 °C 1019.2 hPa Calm     76 % 0.0 mm
22:17 20.3 °C 16.1 °C 1019.2 hPa Calm     77 % 0.0 mm
22:22 20.2 °C 16.0 °C 1019.2 hPa Calm     77 % 0.0 mm
22:27 20.0 °C 15.8 °C 1019.2 hPa Calm     77 % 0.0 mm
22:32 20.0 °C 15.8 °C 1019.2 hPa Calm     77 % 0.0 mm
22:42 19.9 °C 15.9 °C 1019.5 hPa Calm     78 % 0.0 mm
22:47 19.8 °C 16.1 °C 1019.5 hPa Calm     79 % 0.0 mm
22:52 19.6 °C 16.1 °C 1019.5 hPa Calm     80 % 0.0 mm
22:57 19.4 °C 15.9 °C 1019.5 hPa Calm     80 % 0.0 mm
23:02 19.2 °C 15.7 °C 1019.5 hPa Calm     80 % 0.0 mm
23:07 19.2 °C 15.7 °C 1019.5 hPa Calm     80 % 0.0 mm
23:12 19.2 °C 15.7 °C 1019.5 hPa Calm     80 % 0.0 mm
23:17 19.2 °C 15.7 °C 1019.2 hPa Calm     80 % 0.0 mm
23:22 19.0 °C 15.7 °C 1019.2 hPa Calm     81 % 0.0 mm
23:27 18.7 °C 15.6 °C 1019.2 hPa WNW 1.6 km/h 1.6 km/h 82 % 0.0 mm
23:32 18.6 °C 15.5 °C 1019.2 hPa Calm   3.2 km/h 82 % 0.0 mm
23:42 18.7 °C 15.6 °C 1019.2 hPa North 3.2 km/h 3.2 km/h 82 % 0.0 mm
23:47 18.7 °C 15.6 °C 1019.2 hPa Calm   3.2 km/h 82 % 0.0 mm
23:52 18.6 °C 15.5 °C 1019.2 hPa North 1.6 km/h 3.2 km/h 82 % 0.0 mm
Meteo18
Compliments of Weather Underground - 4 mb

Script developed by  Jim McMurry - jmcmurry@mwt.net Adapted for the template by  Wim van der Kuil - Leuven-Template.eu

You find our weather info also at:

European Weather Network

Weather Underground

Equipment we use:

Weather-station
Davis Vue

Weather-program
Meteohub

Weather-server
Raspberry PI 2 B+

Provider
1 and 1

Davis Vue

Meteohub

Raspberry PI 2 B+

1 and 1